createdAt,value
2018-05-10T00:02:15.894Z,41.10
2018-05-10T00:04:44.530Z,41.37
2018-05-10T00:07:12.694Z,39.97
2018-05-10T00:09:41.159Z,40.83
2018-05-10T00:12:09.452Z,40.43
2018-05-10T00:14:37.898Z,41.00
2018-05-10T00:17:06.423Z,41.70
2018-05-10T00:19:34.579Z,41.80
2018-05-10T00:22:02.852Z,42.10
2018-05-10T00:24:31.340Z,41.30
2018-05-10T00:27:00.004Z,40.57
2018-05-10T00:29:28.425Z,41.63
2018-05-10T00:31:56.578Z,41.63
2018-05-10T00:34:25.054Z,39.67
2018-05-10T00:36:53.689Z,37.40
2018-05-10T00:39:22.074Z,40.10
2018-05-10T00:41:50.636Z,40.57
2018-05-10T00:44:18.791Z,39.53
2018-05-10T00:46:47.374Z,39.57
2018-05-10T00:49:15.536Z,40.40
2018-05-10T00:51:45.443Z,39.97
2018-05-10T00:54:26.007Z,38.07
2018-05-10T00:56:54.428Z,38.87
2018-05-10T00:59:23.058Z,38.80
2018-05-10T01:01:51.892Z,39.67
2018-05-10T01:04:20.423Z,38.53
2018-05-10T01:06:49.054Z,40.40
2018-05-10T01:09:18.101Z,39.63
2018-05-10T01:11:46.731Z,38.10
2018-05-10T01:14:15.884Z,37.63
2018-05-10T01:16:44.374Z,38.80
2018-05-10T01:19:13.459Z,37.27
2018-05-10T01:21:42.494Z,39.73
2018-05-10T01:24:11.857Z,40.57
2018-05-10T01:26:40.497Z,40.57
2018-05-10T01:29:10.450Z,42.17
2018-05-10T01:31:39.816Z,40.10
2018-05-10T01:34:08.780Z,38.73
2018-05-10T01:36:37.883Z,39.47
2018-05-10T01:39:07.187Z,38.30
2018-05-10T01:41:37.159Z,40.37
2018-05-10T01:44:05.609Z,38.60
2018-05-10T01:46:33.767Z,38.40
2018-05-10T01:49:03.027Z,35.47
2018-05-10T01:51:31.603Z,35.77
2018-05-10T01:54:00.024Z,32.90
2018-05-10T01:56:28.654Z,34.63
2018-05-10T01:58:57.284Z,30.87
2018-05-10T02:01:26.215Z,32.27
2018-05-10T02:03:54.428Z,31.87
2018-05-10T02:06:22.639Z,31.83
2018-05-10T02:08:51.071Z,32.07
2018-05-10T02:11:20.116Z,31.50
2018-05-10T02:13:48.315Z,31.80
2018-05-10T02:16:17.162Z,30.80
2018-05-10T02:18:46.534Z,29.57
2018-05-10T02:21:14.955Z,30.43
2018-05-10T02:23:43.480Z,29.13
2018-05-10T02:26:11.639Z,27.93
2018-05-10T02:28:39.837Z,26.17
2018-05-10T02:31:09.339Z,25.30
2018-05-10T02:33:39.243Z,26.33
2018-05-10T02:36:07.572Z,26.83
2018-05-10T02:38:36.201Z,23.67
2018-05-10T02:41:05.244Z,25.37
2018-05-10T02:43:34.471Z,23.83
2018-05-10T02:46:02.835Z,22.97
2018-05-10T02:48:31.420Z,22.40
2018-05-10T02:50:59.875Z,22.07
2018-05-10T02:53:28.283Z,19.53
2018-05-10T02:55:56.667Z,19.47
2018-05-10T02:58:25.316Z,20.57
2018-05-10T03:00:53.980Z,19.00
2018-05-10T03:03:22.368Z,18.67
2018-05-10T03:05:51.237Z,19.20
2018-05-10T03:08:21.330Z,22.70
2018-05-10T03:10:49.548Z,22.93
2018-05-10T03:13:18.475Z,22.03
2018-05-10T03:15:46.679Z,21.70
2018-05-10T03:18:15.134Z,22.20
2018-05-10T03:20:44.447Z,22.50
2018-05-10T03:23:12.670Z,23.80
2018-05-10T03:25:41.217Z,21.77
2018-05-10T03:28:09.722Z,23.20
2018-05-10T03:30:38.342Z,25.00
2018-05-10T03:33:06.526Z,23.67
2018-05-10T03:35:34.830Z,24.60
2018-05-10T03:38:03.952Z,25.60
2018-05-10T03:40:32.490Z,25.73
2018-05-10T03:43:00.639Z,27.07
2018-05-10T03:45:29.727Z,27.93
2018-05-10T03:47:58.890Z,29.67
2018-05-10T03:50:27.416Z,30.10
2018-05-10T03:52:56.046Z,29.33
2018-05-10T03:55:24.594Z,30.80
2018-05-10T03:57:53.711Z,30.17
2018-05-10T04:00:22.866Z,30.73
2018-05-10T04:06:15.184Z,30.57
2018-05-10T04:11:49.091Z,31.47
2018-05-10T04:14:18.360Z,32.33
2018-05-10T04:16:46.742Z,32.10
2018-05-10T04:19:15.413Z,32.07
2018-05-10T04:21:43.579Z,29.53
2018-05-10T04:24:12.658Z,29.83
2018-05-10T04:26:41.234Z,31.20
2018-05-10T04:29:09.355Z,30.07
2018-05-10T04:31:37.562Z,29.70
2018-05-10T04:34:06.251Z,29.33
2018-05-10T04:36:34.640Z,27.40
2018-05-10T04:39:03.266Z,29.40
2018-05-10T04:41:31.503Z,30.07
2018-05-10T04:44:01.178Z,30.60
2018-05-10T04:46:29.599Z,30.87
2018-05-10T04:48:57.793Z,28.87
2018-05-10T04:51:26.244Z,28.80
2018-05-10T04:53:55.070Z,26.73
2018-05-10T04:56:23.798Z,27.23
2018-05-10T04:58:53.050Z,26.80
2018-05-10T05:01:21.235Z,25.77
2018-05-10T05:03:49.432Z,25.70
2018-05-10T05:06:17.991Z,25.37
2018-05-10T05:08:47.015Z,23.80
2018-05-10T05:11:15.151Z,24.33
2018-05-10T05:13:44.023Z,23.33
2018-05-10T05:16:12.546Z,20.73
2018-05-10T05:18:40.711Z,21.10
2018-05-10T05:21:09.588Z,21.77
2018-05-10T05:23:38.086Z,21.27
2018-05-10T05:26:06.507Z,19.93
2018-05-10T05:28:34.703Z,18.97
2018-05-10T05:31:03.179Z,18.00
2018-05-10T05:33:31.807Z,18.87
2018-05-10T05:36:00.639Z,18.30
2018-05-10T05:38:29.683Z,18.90
2018-05-10T05:40:58.297Z,18.03
2018-05-10T05:43:26.574Z,19.13
2018-05-10T05:45:55.586Z,18.37
2018-05-10T05:48:24.110Z,18.10
2018-05-10T05:50:52.518Z,18.43
2018-05-10T05:53:22.141Z,18.23
2018-05-10T05:55:50.265Z,18.33
2018-05-10T05:58:18.452Z,19.43
2018-05-10T06:00:47.833Z,19.97
2018-05-10T06:03:16.375Z,19.93
2018-05-10T06:05:45.565Z,20.07
2018-05-10T06:08:14.811Z,17.53
2018-05-10T06:10:43.423Z,17.20
2018-05-10T06:13:11.607Z,14.73
2018-05-10T06:15:40.668Z,14.20
2018-05-10T06:18:09.134Z,13.63
2018-05-10T06:20:38.286Z,13.63
2018-05-10T06:23:07.891Z,13.53
2018-05-10T06:25:36.696Z,13.10
2018-05-10T06:28:05.117Z,12.80
2018-05-10T06:30:34.055Z,13.03
2018-05-10T06:33:02.245Z,13.17
2018-05-10T06:35:30.696Z,12.37
2018-05-10T06:37:59.296Z,13.17
2018-05-10T06:40:28.258Z,12.60
2018-05-10T06:42:57.213Z,11.60
2018-05-10T06:45:26.364Z,11.03
2018-05-10T06:47:55.502Z,11.00
2018-05-10T06:50:25.471Z,9.63
2018-05-10T06:52:53.654Z,9.17
2018-05-10T06:55:22.744Z,8.47
2018-05-10T06:57:51.290Z,10.40
2018-05-10T07:00:19.890Z,8.80
2018-05-10T07:02:48.550Z,8.20
2018-05-10T07:05:17.180Z,6.03
2018-05-10T07:07:45.450Z,7.10
2018-05-10T07:10:13.924Z,7.87
2018-05-10T07:12:42.851Z,7.60
2018-05-10T07:15:11.354Z,6.90
2018-05-10T07:17:39.544Z,7.10
2018-05-10T07:20:08.091Z,6.03
2018-05-10T07:22:36.546Z,6.70
2018-05-10T07:25:05.004Z,7.90
2018-05-10T07:27:33.599Z,7.93
2018-05-10T07:30:03.691Z,7.90
2018-05-10T07:32:32.112Z,7.70
2018-05-10T07:35:00.938Z,7.77
2018-05-10T07:37:29.372Z,8.07
2018-05-10T07:39:59.419Z,7.07
2018-05-10T07:42:28.291Z,6.60
2018-05-10T07:44:57.774Z,7.83
2018-05-10T07:47:26.753Z,7.63
2018-05-10T07:49:55.657Z,9.20
2018-05-10T07:52:24.194Z,7.73
2018-05-10T07:54:52.604Z,8.67
2018-05-10T07:57:21.130Z,8.30
2018-05-10T07:59:49.513Z,9.87
2018-05-10T08:02:17.812Z,10.10
2018-05-10T08:04:46.566Z,9.83
2018-05-10T08:07:15.236Z,10.63
2018-05-10T08:09:43.383Z,9.83
2018-05-10T08:12:12.596Z,11.40
2018-05-10T08:14:41.740Z,10.00
2018-05-10T08:17:10.417Z,11.13
2018-05-10T08:19:39.639Z,11.63
2018-05-10T08:22:08.240Z,11.27
2018-05-10T08:24:36.896Z,11.93
2018-05-10T08:27:05.317Z,12.43
2018-05-10T08:29:34.157Z,12.17
2018-05-10T08:32:02.577Z,12.23
2018-05-10T08:34:31.414Z,10.97
2018-05-10T08:36:59.591Z,9.40
2018-05-10T08:39:28.118Z,9.97
2018-05-10T08:41:56.298Z,9.17
2018-05-10T08:44:24.482Z,9.63
2018-05-10T08:46:53.105Z,9.10
2018-05-10T08:49:22.249Z,7.67
2018-05-10T08:51:50.920Z,6.60
2018-05-10T08:54:19.489Z,5.27
2018-05-10T08:56:48.251Z,4.23
2018-05-10T08:59:16.484Z,3.97
2018-05-10T09:01:46.439Z,5.30
2018-05-10T09:04:15.576Z,3.97
2018-05-10T09:06:44.198Z,3.50
2018-05-10T09:09:12.656Z,4.53
2018-05-10T09:11:41.025Z,5.13
2018-05-10T09:14:09.295Z,5.70
2018-05-10T09:16:38.236Z,5.90
2018-05-10T09:19:06.654Z,5.90
2018-05-10T09:21:35.043Z,6.07
2018-05-10T09:24:04.227Z,6.50
2018-05-10T09:26:34.174Z,6.13
2018-05-10T09:29:03.043Z,6.77
2018-05-10T09:31:31.453Z,6.77
2018-05-10T09:34:00.304Z,7.40
2018-05-10T09:36:28.700Z,6.40
2018-05-10T09:38:57.367Z,5.53
2018-05-10T09:41:26.399Z,4.30
2018-05-10T09:43:54.580Z,3.70
2018-05-10T09:46:23.152Z,4.00
2018-05-10T09:48:51.298Z,3.00
2018-05-10T09:51:19.748Z,2.83
2018-05-10T09:53:49.879Z,3.00
2018-05-10T09:56:18.020Z,2.93
2018-05-10T09:58:47.348Z,3.10
2018-05-10T10:01:16.391Z,2.77
2018-05-10T10:03:45.340Z,2.67
2018-05-10T10:06:13.979Z,2.37
2018-05-10T10:08:42.114Z,2.90
2018-05-10T10:11:10.298Z,2.93
2018-05-10T10:13:40.158Z,3.13
2018-05-10T10:16:09.343Z,3.37
2018-05-10T10:18:38.295Z,3.70
2018-05-10T10:21:07.303Z,3.57
2018-05-10T10:23:35.513Z,3.37
2018-05-10T10:26:04.159Z,3.60
2018-05-10T10:28:32.407Z,4.30
2018-05-10T10:31:01.732Z,3.97
2018-05-10T10:33:30.872Z,4.67
2018-05-10T10:36:00.366Z,4.97
2018-05-10T10:38:29.386Z,4.90
2018-05-10T10:40:57.891Z,5.33
2018-05-10T10:43:27.063Z,6.30
2018-05-10T10:45:55.344Z,6.80
2018-05-10T10:48:25.455Z,7.00
2018-05-10T10:50:53.871Z,6.63
2018-05-10T10:53:22.329Z,6.67
2018-05-10T10:55:50.958Z,8.17
2018-05-10T10:58:20.098Z,8.70
2018-05-10T11:00:48.741Z,10.17
2018-05-10T11:03:17.370Z,9.20
2018-05-10T11:05:45.523Z,9.83
2018-05-10T11:08:14.108Z,11.00
2018-05-10T11:10:42.263Z,11.53
2018-05-10T11:13:11.375Z,12.50
2018-05-10T11:15:40.314Z,13.17
2018-05-10T11:18:08.942Z,13.17
2018-05-10T11:20:38.095Z,14.63
2018-05-10T11:23:08.187Z,15.03
2018-05-10T11:25:37.131Z,18.70
2018-05-10T11:28:05.761Z,18.33
2018-05-10T11:30:35.019Z,19.80
2018-05-10T11:33:03.179Z,18.83
2018-05-10T11:35:31.439Z,21.27
2018-05-10T11:37:59.975Z,20.20
2018-05-10T11:40:28.126Z,21.40
2018-05-10T11:42:56.346Z,21.67
2018-05-10T11:45:24.818Z,19.97
2018-05-10T11:47:53.235Z,22.43
2018-05-10T11:50:21.657Z,21.20
2018-05-10T11:52:50.255Z,21.30
2018-05-10T11:55:19.306Z,21.33
2018-05-10T11:57:47.406Z,20.97
2018-05-10T12:00:15.864Z,20.73
2018-05-10T12:02:44.036Z,21.63
2018-05-10T12:05:13.855Z,20.57
2018-05-10T12:07:42.067Z,20.80
2018-05-10T12:10:10.643Z,21.83
2018-05-10T12:12:39.224Z,21.50
2018-05-10T12:15:07.853Z,21.83
2018-05-10T12:17:36.007Z,22.20
2018-05-10T12:20:05.207Z,21.70
2018-05-10T12:22:34.270Z,22.10
2018-05-10T12:25:03.590Z,19.50
2018-05-10T12:27:32.050Z,22.70
2018-05-10T12:30:00.434Z,21.83
2018-05-10T12:32:28.892Z,21.93
2018-05-10T12:34:57.408Z,21.30
2018-05-10T12:37:25.945Z,22.07
2018-05-10T12:39:54.131Z,22.57
2018-05-10T12:42:23.086Z,22.03
2018-05-10T12:44:51.370Z,20.00
2018-05-10T12:47:19.568Z,21.90
2018-05-10T12:49:48.435Z,22.80
2018-05-10T12:52:17.023Z,22.00
2018-05-10T12:54:45.483Z,23.60
2018-05-10T12:57:14.151Z,22.73
2018-05-10T12:59:43.299Z,21.30
2018-05-10T13:02:13.010Z,22.60
2018-05-10T13:04:42.023Z,20.97
2018-05-10T13:07:11.176Z,21.80
2018-05-10T13:09:40.223Z,22.53
2018-05-10T13:12:08.414Z,22.77
2018-05-10T13:14:36.859Z,23.03
2018-05-10T13:17:06.009Z,21.63
2018-05-10T13:19:34.191Z,21.07
2018-05-10T13:22:02.747Z,21.03
2018-05-10T13:24:31.795Z,21.83
2018-05-10T13:26:59.994Z,20.77
2018-05-10T13:29:28.179Z,21.77
2018-05-10T13:31:56.641Z,21.93
2018-05-10T13:34:25.031Z,23.20
2018-05-10T13:36:53.692Z,23.63
2018-05-10T13:39:22.188Z,23.37
2018-05-10T13:41:51.359Z,21.60
2018-05-10T13:44:19.541Z,24.90
2018-05-10T13:46:48.568Z,24.23
2018-05-10T13:49:17.157Z,22.30
2018-05-10T13:51:45.310Z,25.97
2018-05-10T13:54:13.859Z,25.40
2018-05-10T13:56:42.524Z,24.37
2018-05-10T13:59:11.049Z,23.50
2018-05-10T14:01:40.202Z,22.40
2018-05-10T14:04:09.182Z,23.37
2018-05-10T14:06:37.659Z,23.77
2018-05-10T14:09:07.034Z,23.83
2018-05-10T14:11:35.632Z,21.70
2018-05-10T14:14:04.293Z,21.90
2018-05-10T14:16:32.532Z,22.43
2018-05-10T14:19:00.891Z,22.47
2018-05-10T14:21:29.557Z,21.30
2018-05-10T14:23:58.186Z,20.00
2018-05-10T14:26:27.019Z,19.70
2018-05-10T14:28:56.003Z,19.00
2018-05-10T14:31:26.247Z,18.53
2018-05-10T14:33:54.868Z,18.80
2018-05-10T14:36:23.832Z,15.87
2018-05-10T14:38:52.438Z,16.20
2018-05-10T14:41:22.031Z,16.57
2018-05-10T14:43:50.534Z,14.53
2018-05-10T14:46:19.097Z,14.63
2018-05-10T14:48:47.287Z,13.03
2018-05-10T14:51:15.471Z,11.67
2018-05-10T14:53:44.150Z,10.80
2018-05-10T14:56:12.542Z,10.63
2018-05-10T14:58:41.201Z,11.13
2018-05-10T15:01:10.114Z,9.33
2018-05-10T15:03:39.297Z,9.43
2018-05-10T15:06:07.451Z,7.80
2018-05-10T15:08:36.482Z,7.10
2018-05-10T15:11:05.670Z,5.60
2018-05-10T15:13:33.866Z,5.30
2018-05-10T15:16:02.401Z,5.57
2018-05-10T15:18:31.816Z,5.83
2018-05-10T15:21:00.219Z,4.97
2018-05-10T15:23:28.819Z,5.23
2018-05-10T15:25:57.491Z,5.00
2018-05-10T15:28:26.120Z,5.13
2018-05-10T15:30:55.258Z,4.77
2018-05-10T15:33:23.903Z,4.83
2018-05-10T15:35:52.832Z,4.77
2018-05-10T15:38:21.267Z,4.47
2018-05-10T15:40:49.898Z,4.43
2018-05-10T15:43:18.633Z,4.13
2018-05-10T15:45:47.262Z,3.97
2018-05-10T15:48:15.432Z,4.17
2018-05-10T15:50:43.896Z,4.17
2018-05-10T15:53:12.526Z,3.60
2018-05-10T15:55:40.819Z,4.10
2018-05-10T15:58:09.266Z,3.87
2018-05-10T16:00:37.863Z,3.73
2018-05-10T16:03:07.643Z,3.70
2018-05-10T16:05:35.871Z,3.67
2018-05-10T16:08:04.485Z,3.70
2018-05-10T16:10:32.938Z,3.37
2018-05-10T16:13:01.464Z,3.70
2018-05-10T16:15:29.955Z,3.57
2018-05-10T16:17:58.151Z,3.47
2018-05-10T16:20:26.727Z,3.87
2018-05-10T16:22:55.556Z,3.53
2018-05-10T16:25:23.989Z,3.77
2018-05-10T16:27:52.408Z,3.47
2018-05-10T16:30:22.510Z,4.10
2018-05-10T16:32:50.839Z,3.27
2018-05-10T16:35:19.203Z,3.30
2018-05-10T16:37:47.763Z,3.90
2018-05-10T16:40:16.289Z,3.80
2018-05-10T16:42:45.025Z,4.03
2018-05-10T16:45:13.167Z,4.43
2018-05-10T16:47:41.658Z,3.50
2018-05-10T16:50:09.843Z,4.13
2018-05-10T16:52:38.062Z,4.27
2018-05-10T16:55:07.234Z,3.70
2018-05-10T16:57:36.274Z,3.60
2018-05-10T17:00:04.879Z,3.80
2018-05-10T17:02:33.099Z,2.80
2018-05-10T17:05:01.982Z,3.40
2018-05-10T17:07:30.385Z,3.53
2018-05-10T17:09:59.015Z,3.30
2018-05-10T17:12:28.886Z,3.30
2018-05-10T17:14:57.070Z,3.40
2018-05-10T17:17:26.263Z,2.63
2018-05-10T17:19:54.684Z,2.83
2018-05-10T17:22:23.732Z,2.90
2018-05-10T17:24:51.898Z,2.97
2018-05-10T17:27:21.201Z,2.70
2018-05-10T17:29:49.795Z,3.07
2018-05-10T17:32:18.638Z,3.10
2018-05-10T17:34:48.036Z,2.80
2018-05-10T17:37:16.178Z,2.87
2018-05-10T17:39:44.626Z,3.20
2018-05-10T17:42:14.027Z,2.80
2018-05-10T17:44:42.170Z,3.20
2018-05-10T17:47:10.622Z,2.63
2018-05-10T17:49:40.550Z,2.97
2018-05-10T17:52:08.860Z,3.27
2018-05-10T17:54:37.932Z,3.50
2018-05-10T17:57:06.329Z,4.60
2018-05-10T17:59:34.927Z,4.10
2018-05-10T18:02:03.151Z,4.13
2018-05-10T18:04:31.763Z,3.87
2018-05-10T18:07:01.360Z,4.23
2018-05-10T18:09:30.199Z,4.10
2018-05-10T18:11:58.909Z,3.33
2018-05-10T18:14:27.471Z,3.33
2018-05-10T18:16:56.062Z,3.40
2018-05-10T18:19:24.256Z,4.40
2018-05-10T18:21:52.735Z,4.10
2018-05-10T18:24:21.261Z,3.73
2018-05-10T18:26:50.402Z,3.43
2018-05-10T18:29:20.299Z,3.87
2018-05-10T18:31:48.928Z,3.17
2018-05-10T18:34:17.975Z,2.83
2018-05-10T18:36:46.150Z,3.60
2018-05-10T18:39:14.714Z,3.50
2018-05-10T18:41:44.075Z,3.53
2018-05-10T18:44:12.707Z,3.17
2018-05-10T18:46:41.342Z,3.33
2018-05-10T18:49:10.662Z,3.60
2018-05-10T18:51:39.327Z,3.00
2018-05-10T18:54:07.918Z,3.17
2018-05-10T18:56:37.096Z,3.20
2018-05-10T18:59:05.534Z,3.40
2018-05-10T19:01:33.951Z,3.20
2018-05-10T19:04:02.894Z,3.40
2018-05-10T19:06:32.139Z,3.07
2018-05-10T19:09:00.283Z,3.60
2018-05-10T19:11:28.853Z,3.83
2018-05-10T19:13:57.936Z,3.13
2018-05-10T19:16:26.198Z,3.10
2018-05-10T19:18:54.647Z,3.50
2018-05-10T19:21:23.096Z,3.63
2018-05-10T19:23:51.256Z,3.40
2018-05-10T19:26:19.804Z,3.60
2018-05-10T19:28:49.395Z,4.17
2018-05-10T19:31:18.035Z,7.90
2018-05-10T19:33:46.562Z,8.73
2018-05-10T19:36:15.715Z,7.47
2018-05-10T19:38:44.768Z,9.83
2018-05-10T19:41:13.908Z,11.73
2018-05-10T19:43:42.963Z,10.73
2018-05-10T19:46:11.382Z,9.07
2018-05-10T19:48:39.766Z,6.20
2018-05-10T19:51:08.224Z,4.97
2018-05-10T19:53:37.586Z,4.33
2018-05-10T19:56:05.782Z,4.57
2018-05-10T19:58:34.428Z,3.87
2018-05-10T20:01:03.359Z,4.77
2018-05-10T20:03:31.967Z,5.10
2018-05-10T20:06:00.828Z,5.40
2018-05-10T20:08:29.970Z,4.07
2018-05-10T20:10:58.414Z,4.90
2018-05-10T20:13:26.687Z,4.40
2018-05-10T20:15:55.535Z,4.40
2018-05-10T20:18:24.827Z,4.20
2018-05-10T20:20:53.868Z,4.80
2018-05-10T20:23:23.027Z,4.53
2018-05-10T20:25:51.254Z,4.40
2018-05-10T20:28:20.969Z,4.40
2018-05-10T20:30:50.798Z,5.40
2018-05-10T20:33:18.948Z,4.90
2018-05-10T20:35:47.707Z,5.10
2018-05-10T20:38:16.788Z,5.67
2018-05-10T20:40:44.975Z,5.20
2018-05-10T20:43:14.143Z,5.20
2018-05-10T20:45:43.519Z,5.07
2018-05-10T20:48:11.687Z,5.10
2018-05-10T20:50:39.879Z,4.67
2018-05-10T20:53:09.200Z,4.93
2018-05-10T20:55:37.751Z,4.73
2018-05-10T20:58:07.887Z,4.67
2018-05-10T21:00:36.075Z,4.93
2018-05-10T21:03:04.722Z,4.40
2018-05-10T21:05:32.991Z,4.60
2018-05-10T21:08:01.503Z,4.70
2018-05-10T21:10:29.651Z,4.33
2018-05-10T21:12:58.544Z,4.77
2018-05-10T21:15:26.775Z,4.83
2018-05-10T21:17:54.954Z,4.67
2018-05-10T21:20:24.303Z,4.80
2018-05-10T21:22:52.931Z,5.17
2018-05-10T21:25:21.363Z,4.60
2018-05-10T21:27:49.784Z,4.47
2018-05-10T21:30:18.860Z,5.07
2018-05-10T21:32:48.849Z,5.10
2018-05-10T21:35:16.992Z,5.50
2018-05-10T21:37:47.043Z,5.47
2018-05-10T21:40:15.879Z,5.90
2018-05-10T21:42:44.099Z,6.07
2018-05-10T21:45:13.045Z,6.23
2018-05-10T21:47:41.223Z,6.67
2018-05-10T21:50:09.677Z,6.40
2018-05-10T21:52:37.838Z,6.50
2018-05-10T21:55:06.641Z,6.83
2018-05-10T21:57:35.031Z,6.10
2018-05-10T22:00:03.631Z,6.40
2018-05-10T22:02:31.823Z,6.40
2018-05-10T22:05:00.114Z,6.17
2018-05-10T22:07:29.135Z,5.93
2018-05-10T22:09:57.778Z,6.40
2018-05-10T22:12:26.380Z,6.60
2018-05-10T22:14:54.608Z,6.63
2018-05-10T22:17:23.250Z,7.33
2018-05-10T22:19:51.778Z,7.03
2018-05-10T22:22:19.958Z,7.20
2018-05-10T22:24:49.631Z,6.67
2018-05-10T22:27:18.818Z,7.20
2018-05-10T22:29:47.237Z,6.93
2018-05-10T22:32:15.657Z,7.17
2018-05-10T22:34:44.288Z,7.37
2018-05-10T22:37:12.710Z,7.43
2018-05-10T22:39:40.862Z,7.83
2018-05-10T22:42:09.955Z,7.83
2018-05-10T22:44:39.007Z,8.13
2018-05-10T22:47:07.653Z,6.90
2018-05-10T22:49:36.787Z,7.67
2018-05-10T22:52:05.326Z,7.30
2018-05-10T22:54:34.687Z,7.97
2018-05-10T22:57:03.838Z,8.90
2018-05-10T22:59:32.260Z,9.23
2018-05-10T23:02:00.785Z,7.80
2018-05-10T23:04:28.950Z,7.80
2018-05-10T23:06:58.046Z,8.07
2018-05-10T23:09:27.095Z,9.27
2018-05-10T23:11:55.582Z,9.23
2018-05-10T23:14:24.772Z,8.60
2018-05-10T23:16:53.743Z,7.90
2018-05-10T23:19:23.692Z,9.20
2018-05-10T23:21:52.646Z,8.80
2018-05-10T23:24:20.831Z,7.80
2018-05-10T23:26:49.456Z,8.67
2018-05-10T23:29:18.015Z,9.47
2018-05-10T23:31:47.167Z,8.47
2018-05-10T23:34:15.694Z,8.47
2018-05-10T23:36:44.026Z,8.33
2018-05-10T23:39:12.834Z,8.47
2018-05-10T23:41:41.459Z,10.33
2018-05-10T23:44:10.312Z,9.20
2018-05-10T23:46:38.843Z,8.53
2018-05-10T23:49:07.890Z,8.23
2018-05-10T23:51:36.483Z,9.20
2018-05-10T23:54:05.571Z,9.30
2018-05-10T23:56:33.991Z,8.87
2018-05-10T23:59:02.380Z,8.80
